sensor_id;sensor_type;location;lat;lon;timestamp;pressure;altitude;pressure_sealevel;temperature
76541;BMP280;65385;55.772;37.658;2023-05-07T19:59:09;101125.41;;;3.78
76541;BMP280;65385;55.772;37.658;2023-05-07T20:00:10;101128.09;;;3.84
76541;BMP280;65385;55.772;37.658;2023-05-07T20:01:13;101127.94;;;3.86
76541;BMP280;65385;55.772;37.658;2023-05-07T20:02:14;101125.97;;;3.88
76541;BMP280;65385;55.772;37.658;2023-05-07T20:03:15;101121.41;;;3.90
76541;BMP280;65385;55.772;37.658;2023-05-07T20:04:18;101131.44;;;3.93
76541;BMP280;65385;55.772;37.658;2023-05-07T20:05:18;101134.59;;;3.95
76541;BMP280;65385;55.772;37.658;2023-05-07T20:06:20;101135.25;;;3.97
76541;BMP280;65385;55.772;37.658;2023-05-07T20:07:22;101131.53;;;3.99
76541;BMP280;65385;55.772;37.658;2023-05-07T20:08:23;101136.53;;;4.01
76541;BMP280;65385;55.772;37.658;2023-05-07T20:09:23;101134.56;;;4.03
76541;BMP280;65385;55.772;37.658;2023-05-07T20:10:24;101137.78;;;4.05
76541;BMP280;65385;55.772;37.658;2023-05-07T20:11:25;101131.78;;;4.04
76541;BMP280;65385;55.772;37.658;2023-05-07T20:12:26;101132.59;;;4.05
76541;BMP280;65385;55.772;37.658;2023-05-07T20:13:27;101130.81;;;4.05
76541;BMP280;65385;55.772;37.658;2023-05-07T20:14:27;101135.19;;;4.05
76541;BMP280;65385;55.772;37.658;2023-05-07T20:15:28;101143.59;;;4.07
76541;BMP280;65385;55.772;37.658;2023-05-07T20:16:29;101142.63;;;4.08
76541;BMP280;65385;55.772;37.658;2023-05-07T20:17:29;101138.25;;;4.09
76541;BMP280;65385;55.772;37.658;2023-05-07T20:18:30;101134.84;;;4.08
76541;BMP280;65385;55.772;37.658;2023-05-07T20:19:31;101144.22;;;4.09
76541;BMP280;65385;55.772;37.658;2023-05-07T20:20:31;101136.44;;;4.09
76541;BMP280;65385;55.772;37.658;2023-05-07T20:21:32;101138.06;;;4.10
76541;BMP280;65385;55.772;37.658;2023-05-07T20:22:33;101144.22;;;4.09
76541;BMP280;65385;55.772;37.658;2023-05-07T20:23:33;101140.66;;;4.10
76541;BMP280;65385;55.772;37.658;2023-05-07T20:24:37;101136.44;;;4.09
76541;BMP280;65385;55.772;37.658;2023-05-07T20:25:41;101143.88;;;4.12
76541;BMP280;65385;55.772;37.658;2023-05-07T20:26:43;101144.84;;;4.11
76541;BMP280;65385;55.772;37.658;2023-05-07T20:27:43;101144.84;;;4.11
76541;BMP280;65385;55.772;37.658;2023-05-07T20:28:44;101141.28;;;4.12
76541;BMP280;65385;55.772;37.658;2023-05-07T20:29:45;101143.88;;;4.12
76541;BMP280;65385;55.772;37.658;2023-05-07T20:30:46;101146.31;;;4.14
76541;BMP280;65385;55.772;37.658;2023-05-07T20:31:46;101150.66;;;4.13
76541;BMP280;65385;55.772;37.658;2023-05-07T20:32:47;101148.09;;;4.13
76541;BMP280;65385;55.772;37.658;2023-05-07T20:33:47;101150.31;;;4.16
76541;BMP280;65385;55.772;37.658;2023-05-07T20:34:48;101150.31;;;4.16
76541;BMP280;65385;55.772;37.658;2023-05-07T20:35:49;101148.50;;;4.17
76541;BMP280;65385;55.772;37.658;2023-05-07T20:36:49;101149.50;;;4.16
76541;BMP280;65385;55.772;37.658;2023-05-07T20:37:50;101156.25;;;4.17
76541;BMP280;65385;55.772;37.658;2023-05-07T20:38:51;101149.69;;;4.14
76541;BMP280;65385;55.772;37.658;2023-05-07T20:39:51;101153.88;;;4.15
76541;BMP280;65385;55.772;37.658;2023-05-07T20:40:52;101162.63;;;4.14
76541;BMP280;65385;55.772;37.658;2023-05-07T20:41:53;101154.22;;;4.12
76541;BMP280;65385;55.772;37.658;2023-05-07T20:42:54;101154.88;;;4.14
76541;BMP280;65385;55.772;37.658;2023-05-07T20:43:54;101150.50;;;4.15
76541;BMP280;65385;55.772;37.658;2023-05-07T20:44:56;101162.44;;;4.16
76541;BMP280;65385;55.772;37.658;2023-05-07T20:46:01;101158.28;;;4.15
76541;BMP280;65385;55.772;37.658;2023-05-07T20:47:06;101157.25;;;4.16
76541;BMP280;65385;55.772;37.658;2023-05-07T20:48:07;101164.22;;;4.15
76541;BMP280;65385;55.772;37.658;2023-05-07T20:49:08;101162.63;;;4.14
76541;BMP280;65385;55.772;37.658;2023-05-07T20:50:09;101157.47;;;4.14
76541;BMP280;65385;55.772;37.658;2023-05-07T20:51:09;101160.22;;;4.13
76541;BMP280;65385;55.772;37.658;2023-05-07T20:52:13;101162.63;;;4.14
76541;BMP280;65385;55.772;37.658;2023-05-07T20:53:13;101164.41;;;4.14
76541;BMP280;65385;55.772;37.658;2023-05-07T20:54:14;101162.16;;;4.11
76541;BMP280;65385;55.772;37.658;2023-05-07T20:55:14;101173.31;;;4.11
76541;BMP280;65385;55.772;37.658;2023-05-07T20:56:15;101170.75;;;4.11
76541;BMP280;65385;55.772;37.658;2023-05-07T20:57:16;101166.38;;;4.12
76541;BMP280;65385;55.772;37.658;2023-05-07T20:58:18;101170.56;;;4.13
76541;BMP280;65385;55.772;37.658;2023-05-07T20:59:19;101173.31;;;4.11
76541;BMP280;65385;55.772;37.658;2023-05-07T21:00:20;101165.56;;;4.11
76541;BMP280;65385;55.772;37.658;2023-05-07T21:01:21;101172.53;;;4.11
76541;BMP280;65385;55.772;37.658;2023-05-07T21:02:21;101179.31;;;4.12
76541;BMP280;65385;55.772;37.658;2023-05-07T21:03:22;101176.88;;;4.10
76541;BMP280;65385;55.772;37.658;2023-05-07T21:04:23;101176.09;;;4.10
76541;BMP280;65385;55.772;37.658;2023-05-07T21:05:24;101175.28;;;4.09
76541;BMP280;65385;55.772;37.658;2023-05-07T21:06:24;101176.28;;;4.08
76541;BMP280;65385;55.772;37.658;2023-05-07T21:07:25;101185.63;;;4.09
76541;BMP280;65385;55.772;37.658;2023-05-07T21:08:26;101180.66;;;4.07
76541;BMP280;65385;55.772;37.658;2023-05-07T21:09:27;101177.25;;;4.07
76541;BMP280;65385;55.772;37.658;2023-05-07T21:10:28;101179.84;;;4.07
76541;BMP280;65385;55.772;37.658;2023-05-07T21:11:28;101178.22;;;4.06
76541;BMP280;65385;55.772;37.658;2023-05-07T21:12:29;101177.25;;;4.07
76541;BMP280;65385;55.772;37.658;2023-05-07T21:13:30;101179.19;;;4.05
76541;BMP280;65385;55.772;37.658;2023-05-07T21:14:31;101184.22;;;4.06
76541;BMP280;65385;55.772;37.658;2023-05-07T21:15:31;101185.03;;;4.07
76541;BMP280;65385;55.772;37.658;2023-05-07T21:16:32;101180.81;;;4.06
76541;BMP280;65385;55.772;37.658;2023-05-07T21:17:32;101179.84;;;4.07
76541;BMP280;65385;55.772;37.658;2023-05-07T21:18:35;101184.03;;;4.08
76541;BMP280;65385;55.772;37.658;2023-05-07T21:19:36;101183.25;;;4.07
76541;BMP280;65385;55.772;37.658;2023-05-07T21:20:37;101182.44;;;4.07
76541;BMP280;65385;55.772;37.658;2023-05-07T21:21:37;101185.03;;;4.07
76541;BMP280;65385;55.772;37.658;2023-05-07T21:22:38;101182.59;;;4.05
76541;BMP280;65385;55.772;37.658;2023-05-07T21:23:39;101182.75;;;4.04
76541;BMP280;65385;55.772;37.658;2023-05-07T21:24:39;101181.78;;;4.05
76541;BMP280;65385;55.772;37.658;2023-05-07T21:25:40;101185.19;;;4.05
76541;BMP280;65385;55.772;37.658;2023-05-07T21:26:41;101191.97;;;4.06
76541;BMP280;65385;55.772;37.658;2023-05-07T21:27:42;101186.00;;;4.06
76541;BMP280;65385;55.772;37.658;2023-05-07T21:28:42;101188.75;;;4.04
76541;BMP280;65385;55.772;37.658;2023-05-07T21:29:43;101189.56;;;4.05
76541;BMP280;65385;55.772;37.658;2023-05-07T21:30:44;101193.13;;;4.04
76541;BMP280;65385;55.772;37.658;2023-05-07T21:31:44;101192.31;;;4.03
76541;BMP280;65385;55.772;37.658;2023-05-07T21:32:45;101197.31;;;4.05
76541;BMP280;65385;55.772;37.658;2023-05-07T21:33:46;101190.53;;;4.04
76541;BMP280;65385;55.772;37.658;2023-05-07T21:34:46;101194.72;;;4.05
76541;BMP280;65385;55.772;37.658;2023-05-07T21:35:47;101203.47;;;4.04
76541;BMP280;65385;55.772;37.658;2023-05-07T21:36:48;101202.50;;;4.05
76541;BMP280;65385;55.772;37.658;2023-05-07T21:37:49;101194.72;;;4.05
76541;BMP280;65385;55.772;37.658;2023-05-07T21:38:50;101195.53;;;4.05
76541;BMP280;65385;55.772;37.658;2023-05-07T21:39:51;101196.19;;;4.07
76541;BMP280;65385;55.772;37.658;2023-05-07T21:40:52;101194.56;;;4.06
76541;BMP280;65385;55.772;37.658;2023-05-07T21:41:53;101207.34;;;4.08
76541;BMP280;65385;55.772;37.658;2023-05-07T21:42:53;101203.13;;;4.07
76541;BMP280;65385;55.772;37.658;2023-05-07T21:43:54;101199.75;;;4.06
76541;BMP280;65385;55.772;37.658;2023-05-07T21:44:55;101198.94;;;4.06
76541;BMP280;65385;55.772;37.658;2023-05-07T21:45:56;101211.88;;;4.06
76541;BMP280;65385;55.772;37.658;2023-05-07T21:46:58;101208.47;;;4.05
76541;BMP280;65385;55.772;37.658;2023-05-07T21:47:59;101209.44;;;4.04
76541;BMP280;65385;55.772;37.658;2023-05-07T21:48:59;101204.44;;;4.03
76541;BMP280;65385;55.772;37.658;2023-05-07T21:50:00;101205.25;;;4.03
76541;BMP280;65385;55.772;37.658;2023-05-07T21:51:03;101207.03;;;4.03
76541;BMP280;65385;55.772;37.658;2023-05-07T21:52:10;101208.00;;;4.02
76541;BMP280;65385;55.772;37.658;2023-05-07T21:53:10;101197.84;;;4.00
76541;BMP280;65385;55.772;37.658;2023-05-07T21:54:11;101201.25;;;4.01
76541;BMP280;65385;55.772;37.658;2023-05-07T21:55:12;101203.81;;;4.01
76541;BMP280;65385;55.772;37.658;2023-05-07T21:56:13;101204.44;;;4.03
76541;BMP280;65385;55.772;37.658;2023-05-07T21:57:13;101212.22;;;4.03
76541;BMP280;65385;55.772;37.658;2023-05-07T21:58:14;101204.63;;;4.01
76541;BMP280;65385;55.772;37.658;2023-05-07T21:59:14;101212.41;;;4.01
76541;BMP280;65385;55.772;37.658;2023-05-07T22:00:15;101203.19;;;3.99
76541;BMP280;65385;55.772;37.658;2023-05-07T22:01:16;101207.38;;;4.00
76541;BMP280;65385;55.772;37.658;2023-05-07T22:02:16;101205.78;;;3.99
76541;BMP280;65385;55.772;37.658;2023-05-07T22:03:17;101211.75;;;3.99
76541;BMP280;65385;55.772;37.658;2023-05-07T22:04:18;101207.38;;;4.00
76541;BMP280;65385;55.772;37.658;2023-05-07T22:05:19;101209.97;;;4.00
76541;BMP280;65385;55.772;37.658;2023-05-07T22:06:20;101210.94;;;3.99
76541;BMP280;65385;55.772;37.658;2023-05-07T22:07:21;101207.38;;;4.00
76541;BMP280;65385;55.772;37.658;2023-05-07T22:08:22;101207.38;;;4.00
76541;BMP280;65385;55.772;37.658;2023-05-07T22:09:23;101208.38;;;3.99
76541;BMP280;65385;55.772;37.658;2023-05-07T22:10:23;101208.53;;;3.97
76541;BMP280;65385;55.772;37.658;2023-05-07T22:11:25;101209.50;;;3.96
76541;BMP280;65385;55.772;37.658;2023-05-07T22:12:25;101207.88;;;3.95
76541;BMP280;65385;55.772;37.658;2023-05-07T22:13:26;101208.84;;;3.94
76541;BMP280;65385;55.772;37.658;2023-05-07T22:14:27;101214.03;;;3.94
76541;BMP280;65385;55.772;37.658;2023-05-07T22:15:28;101210.69;;;3.94
76541;BMP280;65385;55.772;37.658;2023-05-07T22:16:28;101208.28;;;3.92
76541;BMP280;65385;55.772;37.658;2023-05-07T22:17:29;101213.63;;;3.91
76541;BMP280;65385;55.772;37.658;2023-05-07T22:18:30;101211.19;;;3.89
76541;BMP280;65385;55.772;37.658;2023-05-07T22:19:30;101213.78;;;3.89
76541;BMP280;65385;55.772;37.658;2023-05-07T22:20:31;101219.13;;;3.88
76541;BMP280;65385;55.772;37.658;2023-05-07T22:21:32;101209.78;;;3.87
76541;BMP280;65385;55.772;37.658;2023-05-07T22:22:46;101210.75;;;3.86
76541;BMP280;65385;55.772;37.658;2023-05-07T22:23:47;101210.25;;;3.82
76541;BMP280;65385;55.772;37.658;2023-05-07T22:24:47;101208.31;;;3.84
76541;BMP280;65385;55.772;37.658;2023-05-07T22:25:48;101206.69;;;3.83
76541;BMP280;65385;55.772;37.658;2023-05-07T22:26:49;101211.06;;;3.83
76541;BMP280;65385;55.772;37.658;2023-05-07T22:27:50;101210.09;;;3.84
76541;BMP280;65385;55.772;37.658;2023-05-07T22:28:51;101212.69;;;3.84
76541;BMP280;65385;55.772;37.658;2023-05-07T22:29:52;101211.06;;;3.83
76541;BMP280;65385;55.772;37.658;2023-05-07T22:30:53;101217.84;;;3.84
76541;BMP280;65385;55.772;37.658;2023-05-07T22:31:53;101211.88;;;3.83
76541;BMP280;65385;55.772;37.658;2023-05-07T22:32:54;101217.22;;;3.82
76541;BMP280;65385;55.772;37.658;2023-05-07T22:33:54;101210.44;;;3.81
76541;BMP280;65385;55.772;37.658;2023-05-07T22:34:55;101224.16;;;3.81
76541;BMP280;65385;55.772;37.658;2023-05-07T22:35:56;101213.22;;;3.79
76541;BMP280;65385;55.772;37.658;2023-05-07T22:36:56;101222.56;;;3.80
76541;BMP280;65385;55.772;37.658;2023-05-07T22:37:57;101215.78;;;3.79
76541;BMP280;65385;55.772;37.658;2023-05-07T22:38:58;101219.97;;;3.80
76541;BMP280;65385;55.772;37.658;2023-05-07T22:39:58;101213.00;;;3.81
76541;BMP280;65385;55.772;37.658;2023-05-07T22:40:59;101218.19;;;3.81
76541;BMP280;65385;55.772;37.658;2023-05-07T22:42:00;101218.19;;;3.81
76541;BMP280;65385;55.772;37.658;2023-05-07T22:43:01;101216.56;;;3.80
76541;BMP280;65385;55.772;37.658;2023-05-07T22:44:02;101215.97;;;3.78
76541;BMP280;65385;55.772;37.658;2023-05-07T22:45:03;101215.16;;;3.77
76541;BMP280;65385;55.772;37.658;2023-05-07T22:46:04;101217.91;;;3.76
76541;BMP280;65385;55.772;37.658;2023-05-07T22:47:05;101215.31;;;3.76
76541;BMP280;65385;55.772;37.658;2023-05-07T22:48:05;101221.63;;;3.73
76541;BMP280;65385;55.772;37.658;2023-05-07T22:49:06;101217.47;;;3.72
76541;BMP280;65385;55.772;37.658;2023-05-07T22:50:07;101217.63;;;3.71
76541;BMP280;65385;55.772;37.658;2023-05-07T22:51:14;101222.00;;;3.70
76541;BMP280;65385;55.772;37.658;2023-05-07T22:52:15;101219.59;;;3.69
76541;BMP280;65385;55.772;37.658;2023-05-07T22:53:15;101215.53;;;3.66
76541;BMP280;65385;55.772;37.658;2023-05-07T22:54:16;101219.91;;;3.65
76541;BMP280;65385;55.772;37.658;2023-05-07T22:55:17;101220.25;;;3.62
76541;BMP280;65385;55.772;37.658;2023-05-07T22:56:17;101214.28;;;3.62
76541;BMP280;65385;55.772;37.658;2023-05-07T22:57:18;101214.28;;;3.62
76541;BMP280;65385;55.772;37.658;2023-05-07T22:58:19;101217.84;;;3.61
76541;BMP280;65385;55.772;37.658;2023-05-07T22:59:20;101219.44;;;3.62
76541;BMP280;65385;55.772;37.658;2023-05-07T23:00:21;101217.03;;;3.60
76541;BMP280;65385;55.772;37.658;2023-05-07T23:01:21;101212.97;;;3.58
76541;BMP280;65385;55.772;37.658;2023-05-07T23:02:22;101212.00;;;3.59
76541;BMP280;65385;55.772;37.658;2023-05-07T23:03:23;101206.22;;;3.57
76541;BMP280;65385;55.772;37.658;2023-05-07T23:04:25;101219.97;;;3.57
76541;BMP280;65385;55.772;37.658;2023-05-07T23:05:26;101214.97;;;3.56
76541;BMP280;65385;55.772;37.658;2023-05-07T23:06:26;101216.09;;;3.53
76541;BMP280;65385;55.772;37.658;2023-05-07T23:07:27;101216.09;;;3.53
76541;BMP280;65385;55.772;37.658;2023-05-07T23:08:28;101213.50;;;3.53
76541;BMP280;65385;55.772;37.658;2023-05-07T23:09:29;101218.66;;;3.53
76541;BMP280;65385;55.772;37.658;2023-05-07T23:10:30;101219.81;;;3.51
76541;BMP280;65385;55.772;37.658;2023-05-07T23:11:34;101214.81;;;3.49
76541;BMP280;65385;55.772;37.658;2023-05-07T23:12:35;101220.00;;;3.49
76541;BMP280;65385;55.772;37.658;2023-05-07T23:13:36;101217.41;;;3.49
76541;BMP280;65385;55.772;37.658;2023-05-07T23:14:36;101212.41;;;3.48
76541;BMP280;65385;55.772;37.658;2023-05-07T23:15:37;101215.19;;;3.46
76541;BMP280;65385;55.772;37.658;2023-05-07T23:16:38;101211.31;;;3.42
76541;BMP280;65385;55.772;37.658;2023-05-07T23:17:38;101218.72;;;3.45
76541;BMP280;65385;55.772;37.658;2023-05-07T23:18:39;101215.69;;;3.42
76541;BMP280;65385;55.772;37.658;2023-05-07T23:19:40;101219.09;;;3.42
76541;BMP280;65385;55.772;37.658;2023-05-07T23:20:41;101218.44;;;3.40
76541;BMP280;65385;55.772;37.658;2023-05-07T23:21:43;101219.41;;;3.39
76541;BMP280;65385;55.772;37.658;2023-05-07T23:22:44;101219.41;;;3.39
76541;BMP280;65385;55.772;37.658;2023-05-07T23:23:44;101219.41;;;3.39
76541;BMP280;65385;55.772;37.658;2023-05-07T23:24:46;101218.59;;;3.39
76541;BMP280;65385;55.772;37.658;2023-05-07T23:25:51;101229.75;;;3.39
76541;BMP280;65385;55.772;37.658;2023-05-07T23:26:52;101213.59;;;3.37
76541;BMP280;65385;55.772;37.658;2023-05-07T23:27:52;101216.16;;;3.37
76541;BMP280;65385;55.772;37.658;2023-05-07T23:28:53;101221.34;;;3.37
76541;BMP280;65385;55.772;37.658;2023-05-07T23:29:54;101222.31;;;3.36
76541;BMP280;65385;55.772;37.658;2023-05-07T23:30:55;101221.34;;;3.37
76541;BMP280;65385;55.772;37.658;2023-05-07T23:31:55;101215.38;;;3.37
76541;BMP280;65385;55.772;37.658;2023-05-07T23:32:56;101224.91;;;3.36
76541;BMP280;65385;55.772;37.658;2023-05-07T23:33:57;101219.72;;;3.36
76541;BMP280;65385;55.772;37.658;2023-05-07T23:34:57;101215.72;;;3.34
76541;BMP280;65385;55.772;37.658;2023-05-07T23:36:02;101221.69;;;3.34
76541;BMP280;65385;55.772;37.658;2023-05-07T23:37:03;101220.88;;;3.34
76541;BMP280;65385;55.772;37.658;2023-05-07T23:38:04;101219.28;;;3.33
76541;BMP280;65385;55.772;37.658;2023-05-07T23:39:05;101212.31;;;3.33
76541;BMP280;65385;55.772;37.658;2023-05-07T23:40:06;101220.88;;;3.34
76541;BMP280;65385;55.772;37.658;2023-05-07T23:41:07;101218.47;;;3.32
76541;BMP280;65385;55.772;37.658;2023-05-07T23:42:07;101215.72;;;3.34
76541;BMP280;65385;55.772;37.658;2023-05-07T23:43:09;101219.28;;;3.33
76541;BMP280;65385;55.772;37.658;2023-05-07T23:44:10;101218.47;;;3.32
76541;BMP280;65385;55.772;37.658;2023-05-07T23:45:10;101222.00;;;3.31
76541;BMP280;65385;55.772;37.658;2023-05-07T23:46:11;101215.22;;;3.30
76541;BMP280;65385;55.772;37.658;2023-05-07T23:47:11;101216.38;;;3.28
76541;BMP280;65385;55.772;37.658;2023-05-07T23:48:12;101220.41;;;3.30
76541;BMP280;65385;55.772;37.658;2023-05-07T23:49:13;101218.00;;;3.29
76541;BMP280;65385;55.772;37.658;2023-05-07T23:50:14;101221.56;;;3.28
76541;BMP280;65385;55.772;37.658;2023-05-07T23:51:14;101223.34;;;3.27
76541;BMP280;65385;55.772;37.658;2023-05-07T23:52:16;101224.47;;;3.24
76541;BMP280;65385;55.772;37.658;2023-05-07T23:53:16;101218.47;;;3.24
76541;BMP280;65385;55.772;37.658;2023-05-07T23:54:17;101217.88;;;3.22
76541;BMP280;65385;55.772;37.658;2023-05-07T23:55:18;101221.44;;;3.21
76541;BMP280;65385;55.772;37.658;2023-05-07T23:56:19;101219.81;;;3.20
76541;BMP280;65385;55.772;37.658;2023-05-07T23:57:19;101224.19;;;3.19
76541;BMP280;65385;55.772;37.658;2023-05-07T23:58:20;101214.81;;;3.18
76541;BMP280;65385;55.772;37.658;2023-05-07T23:59:21;101218.22;;;3.19
